Amo, Colorado
Current Conditions -  °F | °C
As of 9:33 AM on Thursday 30 Oct 2014 (Local Time) from KFLY Reporting Station
Clear Clear  
Wind Chill: 44°   Ceiling: Unl
Heat Index: 49°   Visibility: 10mi
Dew Point: 22°   Wind: 12mph
Humidity: 34%   Direction: 10°N
Pressure: 30.43"   Gusts: NA
Location:  39.0051°N, 104.503°W
Report Text: KFLY 301533Z AUTO 01010KT 10SM CLR 09/M06 A3043 RMK AO2 T00931058
Loading
Personal Weather Stations






























Interactive Weather Map
Tropical Storm Tracking
New forecast layout! Learn more

10-Day Weather Forecast

Advertisements
Track Severe Weather on mobile